sensor_id;sensor_type;location;lat;lon;timestamp;temperature;humidity
871;DHT22;422;51.280;7.236;2023-12-07T00:00:43;2.80;99.90
871;DHT22;422;51.280;7.236;2023-12-07T00:03:12;2.80;99.90
871;DHT22;422;51.280;7.236;2023-12-07T00:05:41;2.70;99.90
871;DHT22;422;51.280;7.236;2023-12-07T00:08:09;2.70;99.90
871;DHT22;422;51.280;7.236;2023-12-07T00:10:37;2.70;99.90
871;DHT22;422;51.280;7.236;2023-12-07T00:13:04;2.70;99.90
871;DHT22;422;51.280;7.236;2023-12-07T00:15:31;2.70;99.90
871;DHT22;422;51.280;7.236;2023-12-07T00:17:59;2.70;99.90
871;DHT22;422;51.280;7.236;2023-12-07T00:20:30;2.80;99.90
871;DHT22;422;51.280;7.236;2023-12-07T00:22:57;2.70;99.90
871;DHT22;422;51.280;7.236;2023-12-07T00:25:24;2.60;99.90
871;DHT22;422;51.280;7.236;2023-12-07T00:27:51;2.60;99.90
871;DHT22;422;51.280;7.236;2023-12-07T00:30:18;2.50;99.90
871;DHT22;422;51.280;7.236;2023-12-07T00:32:46;2.50;99.90
871;DHT22;422;51.280;7.236;2023-12-07T00:35:14;2.50;99.90
871;DHT22;422;51.280;7.236;2023-12-07T00:37:43;2.50;99.90
871;DHT22;422;51.280;7.236;2023-12-07T00:40:11;2.50;99.90
871;DHT22;422;51.280;7.236;2023-12-07T00:42:40;2.50;99.90
871;DHT22;422;51.280;7.236;2023-12-07T00:45:08;2.50;99.90
871;DHT22;422;51.280;7.236;2023-12-07T00:47:35;2.50;99.90
871;DHT22;422;51.280;7.236;2023-12-07T00:50:03;2.50;99.90
871;DHT22;422;51.280;7.236;2023-12-07T00:52:30;2.50;99.90
871;DHT22;422;51.280;7.236;2023-12-07T00:54:59;2.50;99.90
871;DHT22;422;51.280;7.236;2023-12-07T00:57:26;2.50;99.90
871;DHT22;422;51.280;7.236;2023-12-07T00:59:53;2.50;99.90
871;DHT22;422;51.280;7.236;2023-12-07T01:02:21;2.50;99.90
871;DHT22;422;51.280;7.236;2023-12-07T01:04:48;2.60;99.90
871;DHT22;422;51.280;7.236;2023-12-07T01:07:15;2.50;99.90
871;DHT22;422;51.280;7.236;2023-12-07T01:09:42;2.50;99.90
871;DHT22;422;51.280;7.236;2023-12-07T01:12:11;2.60;99.90
871;DHT22;422;51.280;7.236;2023-12-07T01:14:38;2.60;99.90
871;DHT22;422;51.280;7.236;2023-12-07T01:17:06;2.70;99.90
871;DHT22;422;51.280;7.236;2023-12-07T01:19:34;2.60;99.90
871;DHT22;422;51.280;7.236;2023-12-07T01:22:01;2.60;99.90
871;DHT22;422;51.280;7.236;2023-12-07T01:24:28;2.50;99.90
871;DHT22;422;51.280;7.236;2023-12-07T01:26:56;2.50;99.90
871;DHT22;422;51.280;7.236;2023-12-07T01:29:25;2.50;99.90
871;DHT22;422;51.280;7.236;2023-12-07T01:31:52;2.50;99.90
871;DHT22;422;51.280;7.236;2023-12-07T01:34:19;2.40;99.90
871;DHT22;422;51.280;7.236;2023-12-07T01:36:47;2.40;99.90
871;DHT22;422;51.280;7.236;2023-12-07T01:39:14;2.40;99.90
871;DHT22;422;51.280;7.236;2023-12-07T01:41:41;2.40;99.90
871;DHT22;422;51.280;7.236;2023-12-07T01:44:09;2.50;99.90
871;DHT22;422;51.280;7.236;2023-12-07T01:46:37;2.50;99.90
871;DHT22;422;51.280;7.236;2023-12-07T01:49:05;2.50;99.90
871;DHT22;422;51.280;7.236;2023-12-07T01:51:32;2.50;99.90
871;DHT22;422;51.280;7.236;2023-12-07T01:53:59;2.50;99.90
871;DHT22;422;51.280;7.236;2023-12-07T01:56:27;2.50;99.90
871;DHT22;422;51.280;7.236;2023-12-07T01:58:54;2.40;99.90
871;DHT22;422;51.280;7.236;2023-12-07T02:01:22;2.40;99.90
871;DHT22;422;51.280;7.236;2023-12-07T02:03:50;2.50;99.90
871;DHT22;422;51.280;7.236;2023-12-07T02:06:18;2.40;99.90
871;DHT22;422;51.280;7.236;2023-12-07T02:08:46;2.40;99.90
871;DHT22;422;51.280;7.236;2023-12-07T02:11:13;2.30;99.90
871;DHT22;422;51.280;7.236;2023-12-07T02:13:41;2.30;99.90
871;DHT22;422;51.280;7.236;2023-12-07T02:16:15;2.30;99.90
871;DHT22;422;51.280;7.236;2023-12-07T02:18:49;2.20;99.90
871;DHT22;422;51.280;7.236;2023-12-07T02:21:22;2.20;99.90
871;DHT22;422;51.280;7.236;2023-12-07T02:23:51;2.20;99.90
871;DHT22;422;51.280;7.236;2023-12-07T02:26:51;2.20;99.90
871;DHT22;422;51.280;7.236;2023-12-07T02:29:18;2.10;99.90
871;DHT22;422;51.280;7.236;2023-12-07T02:31:45;2.10;99.90
871;DHT22;422;51.280;7.236;2023-12-07T02:34:13;2.00;99.90
871;DHT22;422;51.280;7.236;2023-12-07T02:36:40;2.00;99.90
871;DHT22;422;51.280;7.236;2023-12-07T02:39:09;2.00;99.90
871;DHT22;422;51.280;7.236;2023-12-07T02:41:39;2.00;99.90
871;DHT22;422;51.280;7.236;2023-12-07T02:44:09;2.00;99.90
871;DHT22;422;51.280;7.236;2023-12-07T02:46:37;2.00;99.90
871;DHT22;422;51.280;7.236;2023-12-07T02:49:04;2.20;99.90
871;DHT22;422;51.280;7.236;2023-12-07T02:51:31;2.10;99.90
871;DHT22;422;51.280;7.236;2023-12-07T02:53:58;2.10;99.90
871;DHT22;422;51.280;7.236;2023-12-07T02:56:25;2.10;99.90
871;DHT22;422;51.280;7.236;2023-12-07T02:58:53;2.20;99.90
871;DHT22;422;51.280;7.236;2023-12-07T03:01:21;2.20;99.90
871;DHT22;422;51.280;7.236;2023-12-07T03:03:48;2.10;99.90
871;DHT22;422;51.280;7.236;2023-12-07T03:06:16;2.10;99.90
871;DHT22;422;51.280;7.236;2023-12-07T03:08:45;2.10;99.90
871;DHT22;422;51.280;7.236;2023-12-07T03:11:12;2.00;99.90
871;DHT22;422;51.280;7.236;2023-12-07T03:13:39;2.10;99.90
871;DHT22;422;51.280;7.236;2023-12-07T03:16:08;2.10;99.90
871;DHT22;422;51.280;7.236;2023-12-07T03:18:37;2.10;99.90
871;DHT22;422;51.280;7.236;2023-12-07T03:21:05;2.20;99.90
871;DHT22;422;51.280;7.236;2023-12-07T03:23:32;2.20;99.90
871;DHT22;422;51.280;7.236;2023-12-07T03:25:59;2.10;99.90
871;DHT22;422;51.280;7.236;2023-12-07T03:28:26;2.20;99.90
871;DHT22;422;51.280;7.236;2023-12-07T03:30:53;2.20;99.90
871;DHT22;422;51.280;7.236;2023-12-07T03:33:20;2.20;99.90
871;DHT22;422;51.280;7.236;2023-12-07T03:35:49;2.20;99.90
871;DHT22;422;51.280;7.236;2023-12-07T03:38:16;2.20;99.90
871;DHT22;422;51.280;7.236;2023-12-07T03:40:43;2.20;99.90
871;DHT22;422;51.280;7.236;2023-12-07T03:43:13;2.20;99.90
871;DHT22;422;51.280;7.236;2023-12-07T03:45:40;2.30;99.90
871;DHT22;422;51.280;7.236;2023-12-07T03:48:07;2.30;99.90
871;DHT22;422;51.280;7.236;2023-12-07T03:50:35;2.30;99.90
871;DHT22;422;51.280;7.236;2023-12-07T03:53:03;2.30;99.90
871;DHT22;422;51.280;7.236;2023-12-07T03:55:30;2.30;99.90
871;DHT22;422;51.280;7.236;2023-12-07T03:57:57;2.30;99.90
871;DHT22;422;51.280;7.236;2023-12-07T04:00:25;2.30;99.90
871;DHT22;422;51.280;7.236;2023-12-07T04:02:52;2.30;99.90
871;DHT22;422;51.280;7.236;2023-12-07T04:05:19;2.30;99.90
871;DHT22;422;51.280;7.236;2023-12-07T04:07:46;2.30;99.90
871;DHT22;422;51.280;7.236;2023-12-07T04:10:15;2.30;99.90
871;DHT22;422;51.280;7.236;2023-12-07T04:12:42;2.30;99.90
871;DHT22;422;51.280;7.236;2023-12-07T04:15:10;2.30;99.90
871;DHT22;422;51.280;7.236;2023-12-07T04:17:37;2.30;99.90
871;DHT22;422;51.280;7.236;2023-12-07T04:20:05;2.30;99.90
871;DHT22;422;51.280;7.236;2023-12-07T04:22:33;2.30;99.90
871;DHT22;422;51.280;7.236;2023-12-07T04:25:00;2.30;99.90
871;DHT22;422;51.280;7.236;2023-12-07T04:27:28;2.40;99.90
871;DHT22;422;51.280;7.236;2023-12-07T04:29:56;2.40;99.90
871;DHT22;422;51.280;7.236;2023-12-07T04:32:23;2.40;99.90
871;DHT22;422;51.280;7.236;2023-12-07T04:34:51;2.30;99.90
871;DHT22;422;51.280;7.236;2023-12-07T04:37:18;2.30;99.90
871;DHT22;422;51.280;7.236;2023-12-07T04:43:09;2.40;99.90
871;DHT22;422;51.280;7.236;2023-12-07T04:45:36;2.40;99.90
871;DHT22;422;51.280;7.236;2023-12-07T04:48:04;2.40;99.90
871;DHT22;422;51.280;7.236;2023-12-07T04:50:31;2.40;99.90
871;DHT22;422;51.280;7.236;2023-12-07T04:52:59;2.30;99.90
871;DHT22;422;51.280;7.236;2023-12-07T04:55:26;2.30;99.90
871;DHT22;422;51.280;7.236;2023-12-07T04:57:53;2.30;99.90
871;DHT22;422;51.280;7.236;2023-12-07T05:00:22;2.30;99.90
871;DHT22;422;51.280;7.236;2023-12-07T05:02:49;2.40;99.90
871;DHT22;422;51.280;7.236;2023-12-07T05:05:16;2.30;99.90
871;DHT22;422;51.280;7.236;2023-12-07T05:07:44;2.30;99.90
871;DHT22;422;51.280;7.236;2023-12-07T05:10:12;2.40;99.90
871;DHT22;422;51.280;7.236;2023-12-07T05:12:39;2.30;99.90
871;DHT22;422;51.280;7.236;2023-12-07T05:15:07;2.40;99.90
871;DHT22;422;51.280;7.236;2023-12-07T05:17:36;2.40;99.90
871;DHT22;422;51.280;7.236;2023-12-07T05:20:04;2.40;99.90
871;DHT22;422;51.280;7.236;2023-12-07T05:22:32;2.40;99.90
871;DHT22;422;51.280;7.236;2023-12-07T05:25:00;2.30;99.90
871;DHT22;422;51.280;7.236;2023-12-07T05:27:27;2.30;99.90
871;DHT22;422;51.280;7.236;2023-12-07T05:29:54;2.30;99.90
871;DHT22;422;51.280;7.236;2023-12-07T05:32:21;2.30;99.90
871;DHT22;422;51.280;7.236;2023-12-07T05:34:50;2.30;99.90
871;DHT22;422;51.280;7.236;2023-12-07T05:37:17;2.30;99.90
871;DHT22;422;51.280;7.236;2023-12-07T05:39:44;2.30;99.90
871;DHT22;422;51.280;7.236;2023-12-07T05:42:12;2.20;99.90
871;DHT22;422;51.280;7.236;2023-12-07T05:44:39;2.10;99.90
871;DHT22;422;51.280;7.236;2023-12-07T05:47:06;2.10;99.90
871;DHT22;422;51.280;7.236;2023-12-07T05:49:33;2.10;99.90
871;DHT22;422;51.280;7.236;2023-12-07T05:52:02;2.10;99.90
871;DHT22;422;51.280;7.236;2023-12-07T05:54:30;2.10;99.90
871;DHT22;422;51.280;7.236;2023-12-07T05:56:57;2.00;99.90
871;DHT22;422;51.280;7.236;2023-12-07T05:59:24;2.00;99.90
871;DHT22;422;51.280;7.236;2023-12-07T06:01:52;1.90;99.90
871;DHT22;422;51.280;7.236;2023-12-07T06:04:20;1.80;99.90
871;DHT22;422;51.280;7.236;2023-12-07T06:06:47;1.80;99.90
871;DHT22;422;51.280;7.236;2023-12-07T06:09:16;1.80;99.90
871;DHT22;422;51.280;7.236;2023-12-07T06:11:43;1.80;99.90
871;DHT22;422;51.280;7.236;2023-12-07T06:14:11;1.80;99.90
871;DHT22;422;51.280;7.236;2023-12-07T06:16:38;1.80;99.90
871;DHT22;422;51.280;7.236;2023-12-07T06:19:05;1.90;99.90
871;DHT22;422;51.280;7.236;2023-12-07T06:21:33;1.90;99.90
871;DHT22;422;51.280;7.236;2023-12-07T06:24:00;1.90;99.90
871;DHT22;422;51.280;7.236;2023-12-07T06:26:28;1.90;99.90
871;DHT22;422;51.280;7.236;2023-12-07T06:28:56;1.90;99.90
871;DHT22;422;51.280;7.236;2023-12-07T06:31:23;1.90;99.90
871;DHT22;422;51.280;7.236;2023-12-07T06:33:50;1.80;99.90
871;DHT22;422;51.280;7.236;2023-12-07T06:36:21;1.90;99.90
871;DHT22;422;51.280;7.236;2023-12-07T06:38:48;1.90;99.90
871;DHT22;422;51.280;7.236;2023-12-07T06:41:16;1.90;99.90
871;DHT22;422;51.280;7.236;2023-12-07T06:43:45;1.90;99.90
871;DHT22;422;51.280;7.236;2023-12-07T06:46:12;1.80;99.90
871;DHT22;422;51.280;7.236;2023-12-07T06:48:40;1.60;99.90
871;DHT22;422;51.280;7.236;2023-12-07T06:51:08;1.60;99.90
871;DHT22;422;51.280;7.236;2023-12-07T06:53:38;1.50;99.90
871;DHT22;422;51.280;7.236;2023-12-07T06:56:06;1.50;99.90
871;DHT22;422;51.280;7.236;2023-12-07T06:58:34;1.60;99.90
871;DHT22;422;51.280;7.236;2023-12-07T07:01:02;1.70;99.90
871;DHT22;422;51.280;7.236;2023-12-07T07:03:30;1.70;99.90
871;DHT22;422;51.280;7.236;2023-12-07T07:05:57;1.70;99.90
871;DHT22;422;51.280;7.236;2023-12-07T07:08:25;1.80;99.90
871;DHT22;422;51.280;7.236;2023-12-07T07:10:52;1.90;99.90
871;DHT22;422;51.280;7.236;2023-12-07T07:13:20;1.90;99.90
871;DHT22;422;51.280;7.236;2023-12-07T07:15:49;1.90;99.90
871;DHT22;422;51.280;7.236;2023-12-07T07:18:17;2.00;99.90
871;DHT22;422;51.280;7.236;2023-12-07T07:20:46;2.00;99.90
871;DHT22;422;51.280;7.236;2023-12-07T07:23:13;2.00;99.90
871;DHT22;422;51.280;7.236;2023-12-07T07:25:41;2.00;99.90
871;DHT22;422;51.280;7.236;2023-12-07T07:28:08;2.00;99.90
871;DHT22;422;51.280;7.236;2023-12-07T07:30:36;2.00;99.90
871;DHT22;422;51.280;7.236;2023-12-07T07:33:04;2.00;99.90
871;DHT22;422;51.280;7.236;2023-12-07T07:35:33;2.00;99.90
871;DHT22;422;51.280;7.236;2023-12-07T07:38:00;2.00;99.90
871;DHT22;422;51.280;7.236;2023-12-07T07:40:27;2.00;99.90
871;DHT22;422;51.280;7.236;2023-12-07T07:42:55;2.00;99.90
871;DHT22;422;51.280;7.236;2023-12-07T07:45:22;1.90;99.90
871;DHT22;422;51.280;7.236;2023-12-07T07:47:50;1.90;99.90
871;DHT22;422;51.280;7.236;2023-12-07T07:50:18;1.90;99.90
871;DHT22;422;51.280;7.236;2023-12-07T07:52:47;1.90;99.90
871;DHT22;422;51.280;7.236;2023-12-07T07:55:14;1.90;99.90
871;DHT22;422;51.280;7.236;2023-12-07T07:57:44;2.00;99.90
871;DHT22;422;51.280;7.236;2023-12-07T08:00:12;2.00;99.90
871;DHT22;422;51.280;7.236;2023-12-07T08:02:39;2.10;99.90
871;DHT22;422;51.280;7.236;2023-12-07T08:05:07;2.10;99.90
871;DHT22;422;51.280;7.236;2023-12-07T08:07:35;2.10;99.90
871;DHT22;422;51.280;7.236;2023-12-07T08:10:05;2.20;99.90
871;DHT22;422;51.280;7.236;2023-12-07T08:12:33;2.20;99.90
871;DHT22;422;51.280;7.236;2023-12-07T08:15:01;2.30;99.90
871;DHT22;422;51.280;7.236;2023-12-07T08:17:28;2.30;99.90
871;DHT22;422;51.280;7.236;2023-12-07T08:19:55;2.40;99.90
871;DHT22;422;51.280;7.236;2023-12-07T08:22:26;2.40;99.90
871;DHT22;422;51.280;7.236;2023-12-07T08:24:53;2.40;99.90
871;DHT22;422;51.280;7.236;2023-12-07T08:27:22;2.40;99.90
871;DHT22;422;51.280;7.236;2023-12-07T08:29:50;2.40;99.90
871;DHT22;422;51.280;7.236;2023-12-07T08:32:18;2.40;99.90
871;DHT22;422;51.280;7.236;2023-12-07T08:34:45;2.30;99.90
871;DHT22;422;51.280;7.236;2023-12-07T08:37:13;2.40;99.90
871;DHT22;422;51.280;7.236;2023-12-07T08:39:40;2.60;99.90
871;DHT22;422;51.280;7.236;2023-12-07T08:42:08;2.70;99.90
871;DHT22;422;51.280;7.236;2023-12-07T08:44:37;2.80;99.90
871;DHT22;422;51.280;7.236;2023-12-07T08:47:04;2.90;99.90
871;DHT22;422;51.280;7.236;2023-12-07T08:49:32;3.10;99.90
871;DHT22;422;51.280;7.236;2023-12-07T08:51:59;3.20;99.90
871;DHT22;422;51.280;7.236;2023-12-07T08:54:26;3.30;99.90
871;DHT22;422;51.280;7.236;2023-12-07T08:56:54;3.30;99.90
871;DHT22;422;51.280;7.236;2023-12-07T08:59:22;3.40;99.90
871;DHT22;422;51.280;7.236;2023-12-07T09:01:50;3.60;99.90
871;DHT22;422;51.280;7.236;2023-12-07T09:04:18;3.70;99.90
871;DHT22;422;51.280;7.236;2023-12-07T09:06:45;3.80;99.90
871;DHT22;422;51.280;7.236;2023-12-07T09:09:12;3.80;99.90
871;DHT22;422;51.280;7.236;2023-12-07T09:11:40;3.90;99.90
871;DHT22;422;51.280;7.236;2023-12-07T09:14:08;4.00;99.90
871;DHT22;422;51.280;7.236;2023-12-07T09:16:35;3.90;99.90
871;DHT22;422;51.280;7.236;2023-12-07T09:19:10;3.90;99.90
871;DHT22;422;51.280;7.236;2023-12-07T09:21:39;4.00;99.90
871;DHT22;422;51.280;7.236;2023-12-07T09:24:10;4.10;99.90
871;DHT22;422;51.280;7.236;2023-12-07T09:26:37;4.20;99.90
871;DHT22;422;51.280;7.236;2023-12-07T09:29:04;4.30;99.90
871;DHT22;422;51.280;7.236;2023-12-07T09:31:32;4.40;99.90
871;DHT22;422;51.280;7.236;2023-12-07T09:34:01;4.60;99.90
871;DHT22;422;51.280;7.236;2023-12-07T09:36:31;4.50;99.90
871;DHT22;422;51.280;7.236;2023-12-07T09:38:58;4.50;99.90
871;DHT22;422;51.280;7.236;2023-12-07T09:41:26;4.60;99.90
871;DHT22;422;51.280;7.236;2023-12-07T09:43:54;4.60;99.90
871;DHT22;422;51.280;7.236;2023-12-07T09:46:22;4.70;99.90
871;DHT22;422;51.280;7.236;2023-12-07T09:48:50;4.70;99.90
871;DHT22;422;51.280;7.236;2023-12-07T09:51:17;4.70;99.90
871;DHT22;422;51.280;7.236;2023-12-07T09:53:49;4.70;99.90
871;DHT22;422;51.280;7.236;2023-12-07T09:56:18;4.70;99.90
871;DHT22;422;51.280;7.236;2023-12-07T09:58:46;4.80;99.90
871;DHT22;422;51.280;7.236;2023-12-07T10:01:13;4.80;99.90
871;DHT22;422;51.280;7.236;2023-12-07T10:03:40;5.00;99.90
871;DHT22;422;51.280;7.236;2023-12-07T10:06:09;5.20;99.90
871;DHT22;422;51.280;7.236;2023-12-07T10:08:36;5.40;99.90
871;DHT22;422;51.280;7.236;2023-12-07T10:11:06;5.50;1.00
871;DHT22;422;51.280;7.236;2023-12-07T10:13:35;5.50;1.00
871;DHT22;422;51.280;7.236;2023-12-07T10:16:09;5.40;99.90
871;DHT22;422;51.280;7.236;2023-12-07T10:18:37;5.30;99.90
871;DHT22;422;51.280;7.236;2023-12-07T10:21:07;5.30;99.90
871;DHT22;422;51.280;7.236;2023-12-07T10:23:36;5.40;75.20
871;DHT22;422;51.280;7.236;2023-12-07T10:26:06;5.40;1.00
871;DHT22;422;51.280;7.236;2023-12-07T10:28:35;5.50;1.00
871;DHT22;422;51.280;7.236;2023-12-07T10:31:03;5.40;99.90
871;DHT22;422;51.280;7.236;2023-12-07T10:33:31;5.50;99.90
871;DHT22;422;51.280;7.236;2023-12-07T10:35:58;5.60;99.90
871;DHT22;422;51.280;7.236;2023-12-07T10:38:25;5.60;37.60
871;DHT22;422;51.280;7.236;2023-12-07T10:41:04;5.60;1.00
871;DHT22;422;51.280;7.236;2023-12-07T10:43:37;5.50;1.00
871;DHT22;422;51.280;7.236;2023-12-07T10:46:05;5.50;1.00
871;DHT22;422;51.280;7.236;2023-12-07T10:48:34;5.50;1.00
871;DHT22;422;51.280;7.236;2023-12-07T10:51:06;5.60;1.00
871;DHT22;422;51.280;7.236;2023-12-07T10:53:39;5.50;1.00
871;DHT22;422;51.280;7.236;2023-12-07T10:56:11;5.50;1.00
871;DHT22;422;51.280;7.236;2023-12-07T10:58:42;5.60;1.00
871;DHT22;422;51.280;7.236;2023-12-07T11:01:11;5.30;1.00
871;DHT22;422;51.280;7.236;2023-12-07T11:03:40;4.90;1.00
871;DHT22;422;51.280;7.236;2023-12-07T11:06:09;4.60;1.00
871;DHT22;422;51.280;7.236;2023-12-07T11:08:41;4.50;1.00
871;DHT22;422;51.280;7.236;2023-12-07T11:11:15;4.50;1.00
871;DHT22;422;51.280;7.236;2023-12-07T11:13:52;4.60;1.00
871;DHT22;422;51.280;7.236;2023-12-07T11:16:29;4.30;1.00
871;DHT22;422;51.280;7.236;2023-12-07T11:18:57;4.30;1.00
871;DHT22;422;51.280;7.236;2023-12-07T11:21:24;4.50;1.00
871;DHT22;422;51.280;7.236;2023-12-07T11:23:52;4.60;1.00
871;DHT22;422;51.280;7.236;2023-12-07T11:26:22;4.80;1.00
871;DHT22;422;51.280;7.236;2023-12-07T11:28:51;4.90;1.00
871;DHT22;422;51.280;7.236;2023-12-07T11:31:20;5.10;1.00
871;DHT22;422;51.280;7.236;2023-12-07T11:33:48;5.20;1.00
871;DHT22;422;51.280;7.236;2023-12-07T11:36:16;5.40;1.00
871;DHT22;422;51.280;7.236;2023-12-07T11:39:17;5.40;1.00
871;DHT22;422;51.280;7.236;2023-12-07T11:41:54;5.50;1.00
871;DHT22;422;51.280;7.236;2023-12-07T11:44:33;5.60;1.00
871;DHT22;422;51.280;7.236;2023-12-07T11:47:01;6.00;1.00
871;DHT22;422;51.280;7.236;2023-12-07T11:49:29;6.30;1.00
871;DHT22;422;51.280;7.236;2023-12-07T11:51:57;6.60;1.00
871;DHT22;422;51.280;7.236;2023-12-07T11:54:26;6.30;1.00
871;DHT22;422;51.280;7.236;2023-12-07T11:56:53;6.30;1.00
871;DHT22;422;51.280;7.236;2023-12-07T11:59:21;6.50;1.00
871;DHT22;422;51.280;7.236;2023-12-07T12:01:52;6.60;1.00
871;DHT22;422;51.280;7.236;2023-12-07T12:04:21;6.80;1.00
871;DHT22;422;51.280;7.236;2023-12-07T12:06:49;7.10;1.00
871;DHT22;422;51.280;7.236;2023-12-07T12:09:16;7.30;1.00
871;DHT22;422;51.280;7.236;2023-12-07T12:11:45;7.40;1.00
871;DHT22;422;51.280;7.236;2023-12-07T12:14:14;7.50;1.00
871;DHT22;422;51.280;7.236;2023-12-07T12:16:42;7.50;1.00
871;DHT22;422;51.280;7.236;2023-12-07T12:19:11;7.40;1.00
871;DHT22;422;51.280;7.236;2023-12-07T12:21:41;7.20;1.00
871;DHT22;422;51.280;7.236;2023-12-07T12:24:10;7.10;1.00
871;DHT22;422;51.280;7.236;2023-12-07T12:26:41;7.00;1.00
871;DHT22;422;51.280;7.236;2023-12-07T12:29:09;6.70;1.00
871;DHT22;422;51.280;7.236;2023-12-07T12:31:38;6.30;1.00
871;DHT22;422;51.280;7.236;2023-12-07T12:34:06;5.90;1.00
871;DHT22;422;51.280;7.236;2023-12-07T12:36:37;5.50;1.00
871;DHT22;422;51.280;7.236;2023-12-07T12:39:04;5.30;1.00
871;DHT22;422;51.280;7.236;2023-12-07T12:41:34;5.10;1.00
871;DHT22;422;51.280;7.236;2023-12-07T12:44:01;5.10;1.00
871;DHT22;422;51.280;7.236;2023-12-07T12:46:29;5.10;1.00
871;DHT22;422;51.280;7.236;2023-12-07T12:48:59;4.90;1.00
871;DHT22;422;51.280;7.236;2023-12-07T12:51:29;4.70;1.00
871;DHT22;422;51.280;7.236;2023-12-07T12:54:00;4.60;1.00
871;DHT22;422;51.280;7.236;2023-12-07T12:56:28;4.50;1.00
871;DHT22;422;51.280;7.236;2023-12-07T12:58:55;4.40;1.00
871;DHT22;422;51.280;7.236;2023-12-07T13:01:23;4.30;1.00
871;DHT22;422;51.280;7.236;2023-12-07T13:03:51;4.30;1.00
871;DHT22;422;51.280;7.236;2023-12-07T13:06:19;4.30;1.00
871;DHT22;422;51.280;7.236;2023-12-07T13:08:47;4.30;1.00
871;DHT22;422;51.280;7.236;2023-12-07T13:11:17;4.20;1.00
871;DHT22;422;51.280;7.236;2023-12-07T13:13:45;4.20;1.00
871;DHT22;422;51.280;7.236;2023-12-07T13:16:13;4.20;1.00
871;DHT22;422;51.280;7.236;2023-12-07T13:18:41;4.00;1.00
871;DHT22;422;51.280;7.236;2023-12-07T13:21:08;4.10;1.00
871;DHT22;422;51.280;7.236;2023-12-07T13:23:37;4.10;1.00
871;DHT22;422;51.280;7.236;2023-12-07T13:26:05;4.00;1.00
871;DHT22;422;51.280;7.236;2023-12-07T13:28:35;3.90;1.00
871;DHT22;422;51.280;7.236;2023-12-07T13:31:03;3.80;1.00
871;DHT22;422;51.280;7.236;2023-12-07T13:33:31;3.80;1.00
871;DHT22;422;51.280;7.236;2023-12-07T13:35:59;3.80;1.00
871;DHT22;422;51.280;7.236;2023-12-07T13:38:27;3.80;15.40
871;DHT22;422;51.280;7.236;2023-12-07T13:40:56;3.70;15.10
871;DHT22;422;51.280;7.236;2023-12-07T13:43:23;3.60;24.70
871;DHT22;422;51.280;7.236;2023-12-07T13:45:52;3.60;50.90
871;DHT22;422;51.280;7.236;2023-12-07T13:48:20;3.60;95.50
871;DHT22;422;51.280;7.236;2023-12-07T13:50:47;3.60;99.90
871;DHT22;422;51.280;7.236;2023-12-07T13:53:16;3.50;99.90
871;DHT22;422;51.280;7.236;2023-12-07T13:55:45;3.60;99.90
871;DHT22;422;51.280;7.236;2023-12-07T13:58:12;3.60;99.90
871;DHT22;422;51.280;7.236;2023-12-07T14:00:40;3.60;99.90
871;DHT22;422;51.280;7.236;2023-12-07T14:03:12;3.60;99.90
871;DHT22;422;51.280;7.236;2023-12-07T14:05:40;3.60;99.90
871;DHT22;422;51.280;7.236;2023-12-07T14:08:07;3.60;99.90
871;DHT22;422;51.280;7.236;2023-12-07T14:10:35;3.60;99.90
871;DHT22;422;51.280;7.236;2023-12-07T14:13:02;3.50;99.90
871;DHT22;422;51.280;7.236;2023-12-07T14:15:30;3.60;99.90
871;DHT22;422;51.280;7.236;2023-12-07T14:18:00;3.60;99.90
871;DHT22;422;51.280;7.236;2023-12-07T14:20:28;3.60;99.90
871;DHT22;422;51.280;7.236;2023-12-07T14:22:57;3.60;99.90
871;DHT22;422;51.280;7.236;2023-12-07T14:25:30;3.50;99.90
871;DHT22;422;51.280;7.236;2023-12-07T14:27:57;3.40;99.90
871;DHT22;422;51.280;7.236;2023-12-07T14:30:25;3.40;99.90
871;DHT22;422;51.280;7.236;2023-12-07T14:32:52;3.40;99.90
871;DHT22;422;51.280;7.236;2023-12-07T14:35:20;3.40;99.90
871;DHT22;422;51.280;7.236;2023-12-07T14:37:48;3.50;99.90
871;DHT22;422;51.280;7.236;2023-12-07T14:40:17;3.60;99.90
871;DHT22;422;51.280;7.236;2023-12-07T14:42:44;3.40;99.90
871;DHT22;422;51.280;7.236;2023-12-07T14:45:12;3.30;99.90
871;DHT22;422;51.280;7.236;2023-12-07T14:47:40;3.20;99.90
871;DHT22;422;51.280;7.236;2023-12-07T14:50:09;3.10;99.90
871;DHT22;422;51.280;7.236;2023-12-07T14:52:37;3.00;99.90
871;DHT22;422;51.280;7.236;2023-12-07T14:55:07;3.00;99.90
871;DHT22;422;51.280;7.236;2023-12-07T14:57:35;2.90;99.90
871;DHT22;422;51.280;7.236;2023-12-07T15:00:05;2.90;99.90
871;DHT22;422;51.280;7.236;2023-12-07T15:02:34;2.90;99.90
871;DHT22;422;51.280;7.236;2023-12-07T15:05:02;2.80;99.90
871;DHT22;422;51.280;7.236;2023-12-07T15:07:30;2.70;99.90
871;DHT22;422;51.280;7.236;2023-12-07T15:09:58;2.70;99.90
871;DHT22;422;51.280;7.236;2023-12-07T15:12:27;2.70;99.90
871;DHT22;422;51.280;7.236;2023-12-07T15:14:54;2.70;1.00
871;DHT22;422;51.280;7.236;2023-12-07T15:17:22;2.60;1.00
871;DHT22;422;51.280;7.236;2023-12-07T15:19:50;2.60;1.00
871;DHT22;422;51.280;7.236;2023-12-07T15:22:17;2.50;1.00
871;DHT22;422;51.280;7.236;2023-12-07T15:24:45;2.50;1.00
871;DHT22;422;51.280;7.236;2023-12-07T15:27:12;2.50;1.00
871;DHT22;422;51.280;7.236;2023-12-07T15:29:41;2.40;4.00
871;DHT22;422;51.280;7.236;2023-12-07T15:32:09;2.40;30.50
871;DHT22;422;51.280;7.236;2023-12-07T15:34:36;2.40;91.90
871;DHT22;422;51.280;7.236;2023-12-07T15:37:05;2.30;99.90
871;DHT22;422;51.280;7.236;2023-12-07T15:39:32;2.30;99.90
871;DHT22;422;51.280;7.236;2023-12-07T15:41:59;2.30;99.90
871;DHT22;422;51.280;7.236;2023-12-07T15:44:28;2.30;99.90
871;DHT22;422;51.280;7.236;2023-12-07T15:46:57;2.20;99.90
871;DHT22;422;51.280;7.236;2023-12-07T15:49:24;2.20;99.90
871;DHT22;422;51.280;7.236;2023-12-07T15:51:52;2.20;99.90
871;DHT22;422;51.280;7.236;2023-12-07T15:54:19;2.20;99.90
871;DHT22;422;51.280;7.236;2023-12-07T15:56:46;2.20;99.90
871;DHT22;422;51.280;7.236;2023-12-07T15:59:14;2.10;99.90
871;DHT22;422;51.280;7.236;2023-12-07T16:01:41;2.10;99.90
871;DHT22;422;51.280;7.236;2023-12-07T16:04:11;2.10;99.90
871;DHT22;422;51.280;7.236;2023-12-07T16:06:40;2.10;99.90
871;DHT22;422;51.280;7.236;2023-12-07T16:09:08;2.10;44.50
871;DHT22;422;51.280;7.236;2023-12-07T16:11:36;2.20;1.00
871;DHT22;422;51.280;7.236;2023-12-07T16:14:03;2.30;1.00
871;DHT22;422;51.280;7.236;2023-12-07T16:16:31;2.30;1.00
871;DHT22;422;51.280;7.236;2023-12-07T16:18:58;2.30;99.90
871;DHT22;422;51.280;7.236;2023-12-07T16:21:27;2.40;99.90
871;DHT22;422;51.280;7.236;2023-12-07T16:23:56;2.40;99.90
871;DHT22;422;51.280;7.236;2023-12-07T16:26:25;2.30;99.90
871;DHT22;422;51.280;7.236;2023-12-07T16:28:52;2.40;99.90
871;DHT22;422;51.280;7.236;2023-12-07T16:31:20;2.40;99.90
871;DHT22;422;51.280;7.236;2023-12-07T16:33:47;2.40;99.90
871;DHT22;422;51.280;7.236;2023-12-07T16:36:15;2.40;99.90
871;DHT22;422;51.280;7.236;2023-12-07T16:38:44;2.40;99.90
871;DHT22;422;51.280;7.236;2023-12-07T16:41:12;2.40;99.90
871;DHT22;422;51.280;7.236;2023-12-07T16:43:40;2.30;99.90
871;DHT22;422;51.280;7.236;2023-12-07T16:46:07;2.30;99.90
871;DHT22;422;51.280;7.236;2023-12-07T16:48:35;2.30;99.90
871;DHT22;422;51.280;7.236;2023-12-07T16:51:03;2.30;99.90
871;DHT22;422;51.280;7.236;2023-12-07T16:53:31;2.30;99.90
871;DHT22;422;51.280;7.236;2023-12-07T16:56:01;2.30;99.90
871;DHT22;422;51.280;7.236;2023-12-07T16:58:28;2.20;99.90
871;DHT22;422;51.280;7.236;2023-12-07T17:00:55;2.20;99.90
871;DHT22;422;51.280;7.236;2023-12-07T17:03:23;2.20;99.90
871;DHT22;422;51.280;7.236;2023-12-07T17:05:52;2.20;99.90